YSDU

Dubbo City Regional Airport

Airport
ICAO code
YSDU
IATA Code
DBO
Summary
ICAO Region
APAC
ICAO Territory
Location

Dubbo, New South Wales

Serving
Dubbo
Elevation
935 ft
Coordinates
32° 13' 0" S , 148° 34' 29" E
KCC
Metar
YSDU 271030Z AUTO 17008KT 9999 // NCD 08/05 Q1026 RF00.0/000.0

Regional airport located 2 nm northwest of Dubbo, New South Wales, Australia.

Airport map

Aerial View

SKYbrary Partners:

Safety knowledge contributed by: